Marblemount, Washington
Current Conditions -  °F | °C
As of 11:35 PM on Wednesday 22 Oct 2014 (Local Time) from KAWO Reporting Station
Broken Clouds Broken Clouds  
Wind Chill: 55°   Ceiling: 9500
Heat Index: 55°   Visibility: 10mi
Dew Point: 50°   Wind: 22mph
Humidity: 82%   Direction: 170°S
Pressure: 29.65"   Gusts: 32mph
Location:  48.53°N, 121.45°W
Report Text: KAWO 230635Z AUTO 17019G28KT 10SM FEW027 SCT065 BKN095 13/10 A2965 RMK AO1
Loading
Personal Weather Stations






























Interactive Weather Map
Tropical Storm Tracking
New forecast layout! Learn more

10-Day Weather Forecast

Advertisements
Track Severe Weather on mobile